sensor_id;sensor_type;location;lat;lon;timestamp;pressure;altitude;pressure_sealevel;temperature;humidity
82311;BME280;72015;51.330;12.316;2023-09-19T00:03:42;99513.72;;;17.53;53.82
82311;BME280;72015;51.330;12.316;2023-09-19T00:07:58;99513.89;;;17.54;53.48
82311;BME280;72015;51.330;12.316;2023-09-19T00:12:14;99514.40;;;17.63;52.34
82311;BME280;72015;51.330;12.316;2023-09-19T00:16:30;99515.88;;;17.77;51.64
82311;BME280;72015;51.330;12.316;2023-09-19T00:20:46;99519.44;;;17.92;50.79
82311;BME280;72015;51.330;12.316;2023-09-19T00:25:03;99525.08;;;18.05;51.30
82311;BME280;72015;51.330;12.316;2023-09-19T00:29:18;99528.17;;;18.11;51.64
82311;BME280;72015;51.330;12.316;2023-09-19T00:33:34;99529.08;;;18.09;51.81
82311;BME280;72015;51.330;12.316;2023-09-19T00:37:51;99527.82;;;17.99;53.31
82311;BME280;72015;51.330;12.316;2023-09-19T00:42:06;99525.53;;;17.91;52.84
82311;BME280;72015;51.330;12.316;2023-09-19T00:46:22;99522.24;;;17.82;53.13
82311;BME280;72015;51.330;12.316;2023-09-19T00:50:38;99517.10;;;17.72;53.74
82311;BME280;72015;51.330;12.316;2023-09-19T00:54:54;99515.58;;;17.58;54.33
82311;BME280;72015;51.330;12.316;2023-09-19T00:59:10;99513.85;;;17.41;55.67
82311;BME280;72015;51.330;12.316;2023-09-19T01:03:27;99512.56;;;17.31;54.76
82311;BME280;72015;51.330;12.316;2023-09-19T01:07:42;99511.61;;;17.23;54.61
82311;BME280;72015;51.330;12.316;2023-09-19T01:12:00;99512.05;;;17.19;54.13
82311;BME280;72015;51.330;12.316;2023-09-19T01:20:33;99513.56;;;17.20;53.18
82311;BME280;72015;51.330;12.316;2023-09-19T01:33:18;99520.06;;;17.17;54.15
82311;BME280;72015;51.330;12.316;2023-09-19T01:37:34;99523.93;;;17.14;54.14
82311;BME280;72015;51.330;12.316;2023-09-19T01:46:12;99528.65;;;17.17;53.20
82311;BME280;72015;51.330;12.316;2023-09-19T01:54:45;99537.76;;;17.24;53.14
82311;BME280;72015;51.330;12.316;2023-09-19T01:58:56;99542.22;;;17.17;53.51
82311;BME280;72015;51.330;12.316;2023-09-19T02:03:11;99546.51;;;17.10;53.25
82311;BME280;72015;51.330;12.316;2023-09-19T02:07:26;99551.54;;;17.01;53.24
82311;BME280;72015;51.330;12.316;2023-09-19T02:11:42;99557.46;;;16.87;54.10
82311;BME280;72015;51.330;12.316;2023-09-19T02:15:59;99562.27;;;16.83;53.32
82311;BME280;72015;51.330;12.316;2023-09-19T02:20:14;99563.84;;;16.84;52.31
82311;BME280;72015;51.330;12.316;2023-09-19T02:24:30;99567.16;;;16.87;52.04
82311;BME280;72015;51.330;12.316;2023-09-19T02:28:46;99570.51;;;16.95;51.53
82311;BME280;72015;51.330;12.316;2023-09-19T02:33:03;99574.95;;;17.11;50.59
82311;BME280;72015;51.330;12.316;2023-09-19T02:37:18;99579.74;;;17.26;50.22
82311;BME280;72015;51.330;12.316;2023-09-19T02:41:34;99583.28;;;17.41;49.58
82311;BME280;72015;51.330;12.316;2023-09-19T02:45:50;99586.45;;;17.51;49.99
82311;BME280;72015;51.330;12.316;2023-09-19T02:50:07;99588.23;;;17.64;49.17
82311;BME280;72015;51.330;12.316;2023-09-19T02:54:22;99590.70;;;17.77;49.09
82311;BME280;72015;51.330;12.316;2023-09-19T02:58:38;99593.25;;;17.70;50.97
82311;BME280;72015;51.330;12.316;2023-09-19T03:02:55;99595.54;;;17.65;50.21
82311;BME280;72015;51.330;12.316;2023-09-19T03:07:10;99597.66;;;17.59;50.19
82311;BME280;72015;51.330;12.316;2023-09-19T03:11:26;99601.92;;;17.46;51.63
82311;BME280;72015;51.330;12.316;2023-09-19T03:15:42;99605.43;;;17.34;51.11
82311;BME280;72015;51.330;12.316;2023-09-19T03:19:58;99609.29;;;17.28;50.61
82311;BME280;72015;51.330;12.316;2023-09-19T03:24:14;99611.79;;;17.30;50.10
82311;BME280;72015;51.330;12.316;2023-09-19T03:28:32;99614.89;;;17.30;50.04
82311;BME280;72015;51.330;12.316;2023-09-19T03:32:47;99617.61;;;17.39;49.55
82311;BME280;72015;51.330;12.316;2023-09-19T03:37:03;99620.95;;;17.42;49.75
82311;BME280;72015;51.330;12.316;2023-09-19T03:41:18;99621.47;;;17.49;49.33
82311;BME280;72015;51.330;12.316;2023-09-19T03:45:34;99623.75;;;17.44;49.86
82311;BME280;72015;51.330;12.316;2023-09-19T03:49:50;99625.90;;;17.45;49.84
82311;BME280;72015;51.330;12.316;2023-09-19T03:54:07;99628.86;;;17.51;49.22
82311;BME280;72015;51.330;12.316;2023-09-19T03:58:22;99631.31;;;17.63;48.82
82311;BME280;72015;51.330;12.316;2023-09-19T04:02:39;99634.09;;;17.79;47.92
82311;BME280;72015;51.330;12.316;2023-09-19T04:06:54;99637.14;;;17.90;48.12
82311;BME280;72015;51.330;12.316;2023-09-19T04:11:10;99641.22;;;17.95;48.33
82311;BME280;72015;51.330;12.316;2023-09-19T04:15:26;99645.46;;;17.82;49.39
82311;BME280;72015;51.330;12.316;2023-09-19T04:19:42;99649.03;;;17.77;49.20
82311;BME280;72015;51.330;12.316;2023-09-19T04:23:58;99653.47;;;17.71;49.69
82311;BME280;72015;51.330;12.316;2023-09-19T04:28:15;99657.01;;;17.71;48.70
82311;BME280;72015;51.330;12.316;2023-09-19T04:32:30;99659.70;;;17.66;49.41
82311;BME280;72015;51.330;12.316;2023-09-19T04:36:46;99664.97;;;17.55;49.44
82311;BME280;72015;51.330;12.316;2023-09-19T04:41:02;99669.61;;;17.52;49.36
82311;BME280;72015;51.330;12.316;2023-09-19T04:45:18;99674.80;;;17.48;49.07
82311;BME280;72015;51.330;12.316;2023-09-19T04:49:34;99681.20;;;17.42;49.55
82311;BME280;72015;51.330;12.316;2023-09-19T04:53:50;99688.30;;;17.26;50.52
82311;BME280;72015;51.330;12.316;2023-09-19T04:58:06;99693.67;;;17.22;49.42
82311;BME280;72015;51.330;12.316;2023-09-19T05:02:22;99699.72;;;17.18;49.04
82311;BME280;72015;51.330;12.316;2023-09-19T05:06:38;99705.69;;;17.07;49.43
82311;BME280;72015;51.330;12.316;2023-09-19T05:10:55;99712.58;;;16.98;49.38
82311;BME280;72015;51.330;12.316;2023-09-19T05:15:10;99717.61;;;16.88;50.20
82311;BME280;72015;51.330;12.316;2023-09-19T05:19:26;99721.30;;;16.74;51.14
82311;BME280;72015;51.330;12.316;2023-09-19T05:23:42;99724.50;;;16.66;50.56
82311;BME280;72015;51.330;12.316;2023-09-19T05:27:58;99730.00;;;16.54;50.83
82311;BME280;72015;51.330;12.316;2023-09-19T05:32:14;99735.05;;;16.50;49.66
82311;BME280;72015;51.330;12.316;2023-09-19T05:36:30;99740.79;;;16.44;50.58
82311;BME280;72015;51.330;12.316;2023-09-19T05:40:46;99744.23;;;16.48;49.13
82311;BME280;72015;51.330;12.316;2023-09-19T05:45:03;99747.13;;;16.53;48.77
82311;BME280;72015;51.330;12.316;2023-09-19T05:49:18;99751.87;;;16.53;49.36
82311;BME280;72015;51.330;12.316;2023-09-19T05:53:34;99755.77;;;16.44;49.62
82311;BME280;72015;51.330;12.316;2023-09-19T05:57:51;99760.11;;;16.25;50.48
82311;BME280;72015;51.330;12.316;2023-09-19T06:02:06;99763.97;;;16.04;51.48
82311;BME280;72015;51.330;12.316;2023-09-19T06:06:22;99766.21;;;15.75;52.19
82311;BME280;72015;51.330;12.316;2023-09-19T06:10:38;99769.80;;;15.55;51.01
82311;BME280;72015;51.330;12.316;2023-09-19T06:14:54;99773.55;;;15.41;51.27
82311;BME280;72015;51.330;12.316;2023-09-19T06:19:10;99778.94;;;15.36;50.67
82311;BME280;72015;51.330;12.316;2023-09-19T06:23:26;99783.97;;;15.43;50.13
82311;BME280;72015;51.330;12.316;2023-09-19T06:27:42;99790.75;;;15.64;48.41
82311;BME280;72015;51.330;12.316;2023-09-19T06:31:58;99797.61;;;15.93;47.00
82311;BME280;72015;51.330;12.316;2023-09-19T06:36:14;99804.25;;;16.19;46.31
82311;BME280;72015;51.330;12.316;2023-09-19T06:40:30;99809.00;;;16.41;46.22
82311;BME280;72015;51.330;12.316;2023-09-19T06:44:46;99811.16;;;16.63;45.78
82311;BME280;72015;51.330;12.316;2023-09-19T06:49:03;99813.98;;;16.80;45.53
82311;BME280;72015;51.330;12.316;2023-09-19T06:53:18;99818.09;;;16.76;46.95
82311;BME280;72015;51.330;12.316;2023-09-19T06:57:34;99821.58;;;16.74;46.98
82311;BME280;72015;51.330;12.316;2023-09-19T07:01:50;99827.29;;;16.81;46.09
82311;BME280;72015;51.330;12.316;2023-09-19T07:06:07;99832.26;;;16.88;45.16
82311;BME280;72015;51.330;12.316;2023-09-19T07:10:23;99836.38;;;16.84;45.19
82311;BME280;72015;51.330;12.316;2023-09-19T07:14:39;99841.77;;;16.65;46.18
82311;BME280;72015;51.330;12.316;2023-09-19T07:18:55;99848.16;;;16.49;45.25
82311;BME280;72015;51.330;12.316;2023-09-19T07:23:11;99854.88;;;16.48;45.03
82311;BME280;72015;51.330;12.316;2023-09-19T07:27:27;99861.44;;;16.55;43.84
82311;BME280;72015;51.330;12.316;2023-09-19T07:31:43;99870.97;;;16.67;43.98
82311;BME280;72015;51.330;12.316;2023-09-19T07:35:59;99878.59;;;16.79;43.26
82311;BME280;72015;51.330;12.316;2023-09-19T07:40:15;99885.91;;;16.88;43.20
82311;BME280;72015;51.330;12.316;2023-09-19T07:44:31;99893.72;;;17.00;42.80
82311;BME280;72015;51.330;12.316;2023-09-19T07:48:47;99900.09;;;17.00;43.39
82311;BME280;72015;51.330;12.316;2023-09-19T07:53:03;99905.27;;;17.20;42.09
82311;BME280;72015;51.330;12.316;2023-09-19T07:57:19;99911.08;;;17.31;42.48
82311;BME280;72015;51.330;12.316;2023-09-19T08:01:35;99915.97;;;17.35;42.85
82311;BME280;72015;51.330;12.316;2023-09-19T08:05:51;99924.28;;;17.17;44.19
82311;BME280;72015;51.330;12.316;2023-09-19T08:10:07;99928.68;;;17.00;44.36
82311;BME280;72015;51.330;12.316;2023-09-19T08:14:23;99933.94;;;16.96;43.59
82311;BME280;72015;51.330;12.316;2023-09-19T08:18:39;99940.91;;;16.85;44.43
82311;BME280;72015;51.330;12.316;2023-09-19T08:22:55;99943.83;;;16.68;45.25
82311;BME280;72015;51.330;12.316;2023-09-19T08:27:11;99947.79;;;16.61;45.26
82311;BME280;72015;51.330;12.316;2023-09-19T08:31:27;99950.25;;;16.64;43.79
82311;BME280;72015;51.330;12.316;2023-09-19T08:35:43;99952.42;;;16.71;43.37
82311;BME280;72015;51.330;12.316;2023-09-19T08:39:59;99952.79;;;16.81;43.67
82311;BME280;72015;51.330;12.316;2023-09-19T08:44:15;99952.75;;;16.88;43.66
82311;BME280;72015;51.330;12.316;2023-09-19T08:48:31;99953.64;;;16.93;44.18
82311;BME280;72015;51.330;12.316;2023-09-19T08:52:47;99954.89;;;16.72;46.37
82311;BME280;72015;51.330;12.316;2023-09-19T08:57:05;99952.51;;;16.55;46.27
82311;BME280;72015;51.330;12.316;2023-09-19T09:01:19;99952.58;;;16.49;45.80
82311;BME280;72015;51.330;12.316;2023-09-19T09:05:35;99955.43;;;16.37;45.94
82311;BME280;72015;51.330;12.316;2023-09-19T09:09:51;99959.01;;;16.25;46.24
82311;BME280;72015;51.330;12.316;2023-09-19T09:14:07;99957.15;;;16.13;45.97
82311;BME280;72015;51.330;12.316;2023-09-19T09:18:23;99957.54;;;16.05;45.35
82311;BME280;72015;51.330;12.316;2023-09-19T09:22:44;99957.62;;;16.10;44.26
82311;BME280;72015;51.330;12.316;2023-09-19T09:26:55;99956.74;;;16.20;42.30
82311;BME280;72015;51.330;12.316;2023-09-19T09:35:27;99962.16;;;16.37;37.52
82311;BME280;72015;51.330;12.316;2023-09-19T09:39:52;99962.05;;;16.36;37.56
82311;BME280;72015;51.330;12.316;2023-09-19T09:43:59;99959.97;;;16.63;37.28
82311;BME280;72015;51.330;12.316;2023-09-19T09:48:15;99959.62;;;16.84;37.89
82311;BME280;72015;51.330;12.316;2023-09-19T09:52:31;99961.50;;;16.91;38.55
82311;BME280;72015;51.330;12.316;2023-09-19T10:01:04;99965.88;;;17.24;36.21
82311;BME280;72015;51.330;12.316;2023-09-19T10:05:19;99969.97;;;17.51;35.84
82311;BME280;72015;51.330;12.316;2023-09-19T10:13:51;99975.45;;;17.77;36.71
82311;BME280;72015;51.330;12.316;2023-09-19T10:18:07;99975.92;;;18.01;36.34
82311;BME280;72015;51.330;12.316;2023-09-19T10:22:23;99978.59;;;18.15;35.99
82311;BME280;72015;51.330;12.316;2023-09-19T10:26:39;99979.38;;;18.16;36.54
82311;BME280;72015;51.330;12.316;2023-09-19T10:30:55;99979.52;;;18.39;35.41
82311;BME280;72015;51.330;12.316;2023-09-19T10:35:11;99981.91;;;18.57;35.01
82311;BME280;72015;51.330;12.316;2023-09-19T10:39:27;99984.36;;;18.76;34.75
82311;BME280;72015;51.330;12.316;2023-09-19T10:43:43;99986.72;;;18.92;35.18
82311;BME280;72015;51.330;12.316;2023-09-19T10:47:59;99987.61;;;19.17;33.92
82311;BME280;72015;51.330;12.316;2023-09-19T10:52:15;99990.59;;;19.25;34.61
82311;BME280;72015;51.330;12.316;2023-09-19T10:56:32;99989.81;;;19.44;32.75
82311;BME280;72015;51.330;12.316;2023-09-19T11:09:19;99990.44;;;20.14;31.13
82311;BME280;72015;51.330;12.316;2023-09-19T11:13:35;99993.98;;;20.17;31.48
82311;BME280;72015;51.330;12.316;2023-09-19T11:17:51;99996.19;;;20.33;30.95
82311;BME280;72015;51.330;12.316;2023-09-19T11:22:07;99994.97;;;20.34;31.03
82311;BME280;72015;51.330;12.316;2023-09-19T11:30:39;99993.48;;;20.69;28.94
82311;BME280;72015;51.330;12.316;2023-09-19T11:34:55;99992.53;;;20.82;29.87
82311;BME280;72015;51.330;12.316;2023-09-19T11:39:24;99990.99;;;20.85;30.17
82311;BME280;72015;51.330;12.316;2023-09-19T11:43:30;99989.28;;;20.83;30.82
82311;BME280;72015;51.330;12.316;2023-09-19T11:47:44;99986.67;;;20.97;30.12
82311;BME280;72015;51.330;12.316;2023-09-19T11:51:59;99984.52;;;21.09;29.91
82311;BME280;72015;51.330;12.316;2023-09-19T11:56:15;99982.28;;;21.05;30.33
82311;BME280;72015;51.330;12.316;2023-09-19T12:00:31;99980.57;;;20.87;31.13
82311;BME280;72015;51.330;12.316;2023-09-19T12:04:47;99977.53;;;20.75;31.32
82311;BME280;72015;51.330;12.316;2023-09-19T12:09:03;99975.45;;;20.64;31.40
82311;BME280;72015;51.330;12.316;2023-09-19T12:13:19;99982.06;;;20.36;32.89
82311;BME280;72015;51.330;12.316;2023-09-19T12:17:38;99982.20;;;20.03;33.45
82311;BME280;72015;51.330;12.316;2023-09-19T12:21:54;99979.17;;;19.88;33.04
82311;BME280;72015;51.330;12.316;2023-09-19T12:26:07;99976.79;;;19.76;33.13
82311;BME280;72015;51.330;12.316;2023-09-19T12:34:39;99975.06;;;19.42;33.28
82311;BME280;72015;51.330;12.316;2023-09-19T12:38:55;99974.30;;;19.34;32.97
82311;BME280;72015;51.330;12.316;2023-09-19T12:43:11;99973.08;;;19.25;32.80
82311;BME280;72015;51.330;12.316;2023-09-19T12:47:27;99968.81;;;19.23;32.89
82311;BME280;72015;51.330;12.316;2023-09-19T12:51:43;99966.49;;;19.46;31.23
82311;BME280;72015;51.330;12.316;2023-09-19T12:55:59;99964.01;;;19.72;31.24
82311;BME280;72015;51.330;12.316;2023-09-19T13:00:15;99962.48;;;20.03;30.47
82311;BME280;72015;51.330;12.316;2023-09-19T13:04:31;99960.11;;;20.39;29.44
82311;BME280;72015;51.330;12.316;2023-09-19T13:08:47;99958.64;;;20.54;30.04
82311;BME280;72015;51.330;12.316;2023-09-19T13:13:22;99957.45;;;20.79;29.31
82311;BME280;72015;51.330;12.316;2023-09-19T13:17:19;99953.66;;;21.07;28.84
82311;BME280;72015;51.330;12.316;2023-09-19T13:21:35;99950.16;;;21.37;28.80
82311;BME280;72015;51.330;12.316;2023-09-19T13:25:51;99949.76;;;21.54;29.24
82311;BME280;72015;51.330;12.316;2023-09-19T13:30:07;99945.53;;;21.79;28.59
82311;BME280;72015;51.330;12.316;2023-09-19T13:34:23;99943.03;;;22.11;27.63
82311;BME280;72015;51.330;12.316;2023-09-19T13:38:40;99942.00;;;22.54;27.18
82311;BME280;72015;51.330;12.316;2023-09-19T13:42:55;99939.67;;;22.87;27.07
82311;BME280;72015;51.330;12.316;2023-09-19T13:47:11;99940.52;;;23.09;27.19
82311;BME280;72015;51.330;12.316;2023-09-19T13:51:27;99937.16;;;23.06;28.02
82311;BME280;72015;51.330;12.316;2023-09-19T13:55:43;99933.48;;;23.39;26.12
82311;BME280;72015;51.330;12.316;2023-09-19T13:59:59;99929.44;;;23.42;26.76
82311;BME280;72015;51.330;12.316;2023-09-19T14:04:15;99924.48;;;23.71;25.59
82311;BME280;72015;51.330;12.316;2023-09-19T14:08:31;99918.94;;;23.95;25.23
82311;BME280;72015;51.330;12.316;2023-09-19T14:12:47;99915.03;;;24.29;24.63
82311;BME280;72015;51.330;12.316;2023-09-19T14:17:04;99911.81;;;24.58;24.40
82311;BME280;72015;51.330;12.316;2023-09-19T14:21:19;99909.10;;;24.56;25.39
82311;BME280;72015;51.330;12.316;2023-09-19T14:25:35;99906.03;;;24.67;24.78
82311;BME280;72015;51.330;12.316;2023-09-19T14:29:51;99904.94;;;24.89;24.37
82311;BME280;72015;51.330;12.316;2023-09-19T14:34:07;99906.34;;;24.85;25.11
82311;BME280;72015;51.330;12.316;2023-09-19T14:38:23;99902.65;;;25.18;23.58
82311;BME280;72015;51.330;12.316;2023-09-19T14:42:39;99906.89;;;25.31;24.09
82311;BME280;72015;51.330;12.316;2023-09-19T14:46:55;99904.17;;;25.43;23.80
82311;BME280;72015;51.330;12.316;2023-09-19T14:51:11;99901.09;;;25.53;24.57
82311;BME280;72015;51.330;12.316;2023-09-19T14:55:27;99902.40;;;25.30;25.73
82311;BME280;72015;51.330;12.316;2023-09-19T14:59:43;99899.29;;;25.09;25.90
82311;BME280;72015;51.330;12.316;2023-09-19T15:03:59;99898.53;;;25.14;24.85
82311;BME280;72015;51.330;12.316;2023-09-19T15:08:15;99898.15;;;25.05;24.86
82311;BME280;72015;51.330;12.316;2023-09-19T15:12:31;99896.48;;;24.81;25.37
82311;BME280;72015;51.330;12.316;2023-09-19T15:16:47;99896.83;;;24.71;25.08
82311;BME280;72015;51.330;12.316;2023-09-19T15:21:04;99896.04;;;24.50;25.12
82311;BME280;72015;51.330;12.316;2023-09-19T15:25:19;99892.95;;;24.44;24.70
82311;BME280;72015;51.330;12.316;2023-09-19T15:29:35;99889.60;;;24.34;24.93
82311;BME280;72015;51.330;12.316;2023-09-19T15:33:51;99893.54;;;24.06;25.60
82311;BME280;72015;51.330;12.316;2023-09-19T15:38:07;99893.28;;;23.69;26.39
82311;BME280;72015;51.330;12.316;2023-09-19T15:42:23;99892.27;;;23.35;26.62
82311;BME280;72015;51.330;12.316;2023-09-19T15:46:39;99890.55;;;23.11;26.65
82311;BME280;72015;51.330;12.316;2023-09-19T15:50:55;99891.94;;;23.08;26.17
82311;BME280;72015;51.330;12.316;2023-09-19T15:55:11;99893.11;;;22.99;26.36
82311;BME280;72015;51.330;12.316;2023-09-19T15:59:27;99895.36;;;22.71;27.37
82311;BME280;72015;51.330;12.316;2023-09-19T16:03:44;99894.12;;;22.56;27.20
82311;BME280;72015;51.330;12.316;2023-09-19T16:08:02;99893.30;;;22.48;27.23
82311;BME280;72015;51.330;12.316;2023-09-19T16:12:15;99892.78;;;22.38;27.54
82311;BME280;72015;51.330;12.316;2023-09-19T16:16:31;99893.53;;;22.19;28.13
82311;BME280;72015;51.330;12.316;2023-09-19T16:20:47;99894.42;;;22.02;28.08
82311;BME280;72015;51.330;12.316;2023-09-19T16:25:04;99895.56;;;21.90;27.69
82311;BME280;72015;51.330;12.316;2023-09-19T16:29:19;99896.20;;;21.84;27.88
82311;BME280;72015;51.330;12.316;2023-09-19T16:33:36;99895.37;;;21.79;28.19
82311;BME280;72015;51.330;12.316;2023-09-19T16:37:51;99894.12;;;21.88;27.27
82311;BME280;72015;51.330;12.316;2023-09-19T16:42:07;99891.91;;;22.05;26.88
82311;BME280;72015;51.330;12.316;2023-09-19T16:46:23;99890.89;;;22.16;27.24
82311;BME280;72015;51.330;12.316;2023-09-19T16:50:39;99891.97;;;22.09;27.78
82311;BME280;72015;51.330;12.316;2023-09-19T16:54:55;99894.06;;;21.98;28.53
82311;BME280;72015;51.330;12.316;2023-09-19T16:59:11;99896.72;;;21.75;29.29
82311;BME280;72015;51.330;12.316;2023-09-19T17:03:27;99897.39;;;21.39;29.56
82311;BME280;72015;51.330;12.316;2023-09-19T17:07:43;99899.61;;;21.12;30.00
82311;BME280;72015;51.330;12.316;2023-09-19T17:11:59;99899.33;;;20.85;30.25
82311;BME280;72015;51.330;12.316;2023-09-19T17:16:16;99900.61;;;20.61;30.37
82311;BME280;72015;51.330;12.316;2023-09-19T17:20:31;99901.75;;;20.47;30.63
82311;BME280;72015;51.330;12.316;2023-09-19T17:24:47;99907.08;;;20.32;30.30
82311;BME280;72015;51.330;12.316;2023-09-19T17:29:03;99910.31;;;20.35;29.97
82311;BME280;72015;51.330;12.316;2023-09-19T17:33:19;99915.53;;;20.36;29.98
82311;BME280;72015;51.330;12.316;2023-09-19T17:37:35;99921.27;;;20.44;29.74
82311;BME280;72015;51.330;12.316;2023-09-19T17:41:51;99926.50;;;20.41;30.23
82311;BME280;72015;51.330;12.316;2023-09-19T17:46:11;99929.55;;;20.36;30.29
82311;BME280;72015;51.330;12.316;2023-09-19T17:50:23;99931.22;;;20.33;30.18
82311;BME280;72015;51.330;12.316;2023-09-19T17:54:39;99931.76;;;20.34;30.04
82311;BME280;72015;51.330;12.316;2023-09-19T17:58:55;99933.57;;;20.30;30.14
82311;BME280;72015;51.330;12.316;2023-09-19T18:03:12;99936.53;;;20.25;30.31
82311;BME280;72015;51.330;12.316;2023-09-19T18:07:27;99939.31;;;20.15;30.82
82311;BME280;72015;51.330;12.316;2023-09-19T18:11:43;99943.06;;;20.01;31.29
82311;BME280;72015;51.330;12.316;2023-09-19T18:15:59;99948.55;;;19.85;31.41
82311;BME280;72015;51.330;12.316;2023-09-19T18:20:15;99953.38;;;19.77;31.17
82311;BME280;72015;51.330;12.316;2023-09-19T18:24:31;99956.75;;;19.69;31.56
82311;BME280;72015;51.330;12.316;2023-09-19T18:28:47;99962.44;;;19.65;31.28
82311;BME280;72015;51.330;12.316;2023-09-19T18:33:04;99967.95;;;19.59;31.72
82311;BME280;72015;51.330;12.316;2023-09-19T18:37:19;99973.16;;;19.53;31.67
82311;BME280;72015;51.330;12.316;2023-09-19T18:41:35;99977.23;;;19.49;31.83
82311;BME280;72015;51.330;12.316;2023-09-19T18:45:55;99982.00;;;19.47;31.71
82311;BME280;72015;51.330;12.316;2023-09-19T18:50:08;99985.05;;;19.43;31.85
82311;BME280;72015;51.330;12.316;2023-09-19T18:54:24;99988.39;;;19.36;32.08
82311;BME280;72015;51.330;12.316;2023-09-19T18:58:40;99991.56;;;19.31;32.06
82311;BME280;72015;51.330;12.316;2023-09-19T19:02:55;99993.22;;;19.28;31.77
82311;BME280;72015;51.330;12.316;2023-09-19T19:07:11;99995.62;;;19.26;31.92
82311;BME280;72015;51.330;12.316;2023-09-19T19:11:27;99997.88;;;19.22;32.13
82311;BME280;72015;51.330;12.316;2023-09-19T19:15:44;99999.02;;;19.10;32.62
82311;BME280;72015;51.330;12.316;2023-09-19T19:20:00;100000.87;;;19.02;32.51
82311;BME280;72015;51.330;12.316;2023-09-19T19:24:15;100001.37;;;18.89;32.81
82311;BME280;72015;51.330;12.316;2023-09-19T19:28:31;100002.12;;;18.77;33.28
82311;BME280;72015;51.330;12.316;2023-09-19T19:32:47;100002.53;;;18.67;32.99
82311;BME280;72015;51.330;12.316;2023-09-19T19:37:03;100004.66;;;18.56;33.64
82311;BME280;72015;51.330;12.316;2023-09-19T19:41:20;100006.11;;;18.54;33.11
82311;BME280;72015;51.330;12.316;2023-09-19T19:45:36;100006.71;;;18.53;33.04
82311;BME280;72015;51.330;12.316;2023-09-19T19:49:52;100008.36;;;18.53;33.29
82311;BME280;72015;51.330;12.316;2023-09-19T19:54:08;100010.89;;;18.59;32.86
82311;BME280;72015;51.330;12.316;2023-09-19T19:58:24;100012.25;;;18.65;32.89
82311;BME280;72015;51.330;12.316;2023-09-19T20:02:40;100015.51;;;18.68;32.77
82311;BME280;72015;51.330;12.316;2023-09-19T20:06:56;100016.80;;;18.72;33.13
82311;BME280;72015;51.330;12.316;2023-09-19T20:11:12;100018.14;;;18.80;32.58
82311;BME280;72015;51.330;12.316;2023-09-19T20:15:28;100019.20;;;18.82;32.83
82311;BME280;72015;51.330;12.316;2023-09-19T20:19:43;100020.06;;;18.86;32.78
82311;BME280;72015;51.330;12.316;2023-09-19T20:24:00;100019.67;;;18.80;33.49
82311;BME280;72015;51.330;12.316;2023-09-19T20:28:16;100018.33;;;18.76;33.56
82311;BME280;72015;51.330;12.316;2023-09-19T20:32:32;100016.86;;;18.70;33.74
82311;BME280;72015;51.330;12.316;2023-09-19T20:36:48;100016.77;;;18.53;34.67
82311;BME280;72015;51.330;12.316;2023-09-19T20:41:07;100016.49;;;18.40;34.84
82311;BME280;72015;51.330;12.316;2023-09-19T20:45:20;100016.44;;;18.31;35.09
82311;BME280;72015;51.330;12.316;2023-09-19T20:49:36;100015.77;;;18.20;35.55
82311;BME280;72015;51.330;12.316;2023-09-19T20:53:52;100013.31;;;18.14;35.66
82311;BME280;72015;51.330;12.316;2023-09-19T20:58:08;100010.13;;;18.07;35.92
82311;BME280;72015;51.330;12.316;2023-09-19T21:02:24;100007.17;;;18.02;35.46
82311;BME280;72015;51.330;12.316;2023-09-19T21:06:40;100003.31;;;18.01;35.17
82311;BME280;72015;51.330;12.316;2023-09-19T21:10:56;99999.33;;;18.00;35.26
82311;BME280;72015;51.330;12.316;2023-09-19T21:15:12;99995.51;;;17.89;36.04
82311;BME280;72015;51.330;12.316;2023-09-19T21:19:28;99994.35;;;17.80;35.54
82311;BME280;72015;51.330;12.316;2023-09-19T21:23:44;99993.66;;;17.68;36.52
82311;BME280;72015;51.330;12.316;2023-09-19T21:28:00;99992.97;;;17.53;37.01
82311;BME280;72015;51.330;12.316;2023-09-19T21:32:16;99992.55;;;17.38;36.81
82311;BME280;72015;51.330;12.316;2023-09-19T21:36:32;99992.79;;;17.26;36.92
82311;BME280;72015;51.330;12.316;2023-09-19T21:40:48;99992.67;;;17.24;36.48
82311;BME280;72015;51.330;12.316;2023-09-19T21:45:04;99992.44;;;17.16;37.26
82311;BME280;72015;51.330;12.316;2023-09-19T21:49:20;99992.41;;;17.18;36.44
82311;BME280;72015;51.330;12.316;2023-09-19T21:53:36;99991.39;;;17.32;35.98
82311;BME280;72015;51.330;12.316;2023-09-19T21:57:52;99990.99;;;17.48;35.75
82311;BME280;72015;51.330;12.316;2023-09-19T22:02:08;99990.74;;;17.61;36.05
82311;BME280;72015;51.330;12.316;2023-09-19T22:06:24;99988.45;;;17.76;35.89
82311;BME280;72015;51.330;12.316;2023-09-19T22:10:43;99986.31;;;17.89;35.67
82311;BME280;72015;51.330;12.316;2023-09-19T22:14:56;99984.58;;;17.91;36.70
82311;BME280;72015;51.330;12.316;2023-09-19T22:19:12;99984.14;;;17.93;36.49
82311;BME280;72015;51.330;12.316;2023-09-19T22:23:28;99982.83;;;17.88;36.97
82311;BME280;72015;51.330;12.316;2023-09-19T22:27:44;99981.00;;;17.80;37.28
82311;BME280;72015;51.330;12.316;2023-09-19T22:32:00;99979.03;;;17.78;36.94
82311;BME280;72015;51.330;12.316;2023-09-19T22:36:19;99976.75;;;17.69;37.44
82311;BME280;72015;51.330;12.316;2023-09-19T22:40:32;99976.45;;;17.71;37.02
82311;BME280;72015;51.330;12.316;2023-09-19T22:44:48;99975.38;;;17.72;36.99
82311;BME280;72015;51.330;12.316;2023-09-19T22:49:04;99975.68;;;17.72;37.64
82311;BME280;72015;51.330;12.316;2023-09-19T22:53:20;99976.31;;;17.71;37.42
82311;BME280;72015;51.330;12.316;2023-09-19T22:57:36;99976.76;;;17.73;37.49
82311;BME280;72015;51.330;12.316;2023-09-19T23:01:52;99977.86;;;17.69;37.99
82311;BME280;72015;51.330;12.316;2023-09-19T23:06:08;99978.51;;;17.61;38.17
82311;BME280;72015;51.330;12.316;2023-09-19T23:10:24;99979.66;;;17.51;38.82